PSICF SBSV-SNPJ
Flight info
| Callsign | PSICF |
|---|---|
| Flight time | 1h 59m |
| Altitude | 40000 |
| Route | GEKEV UZ30 MIMIP UL795 EGDUP/N405F145 VFR |
| Aircraft | C25B/M-SDGRY/LB1 |
Departure
| Time | 2026-04-20 18:05 |
|---|---|
| Airport | Deputado Luiz Eduardo Magalhães International Airport (SBSV) |
Arrival
| Time | 2026-04-20 20:05 |
|---|---|
| Airport | Patrocínio Airport (SNPJ) |
| Time | Latitude | Longitude | Altitude | Speed | Heading |
|---|---|---|---|---|---|
| 2026-04-20 17:59 | -12.91569 | -38.34068 | 39 ft | 0 kts | 319° |
| 2026-04-20 17:59 | -12.91560 | -38.34075 | 39 ft | 5 kts | 322° |
| 2026-04-20 17:59 | -12.91557 | -38.34077 | 39 ft | 0 kts | 322° |
| 2026-04-20 18:00 | -12.91557 | -38.34078 | 39 ft | 0 kts | 322° |
| 2026-04-20 18:00 | -12.91526 | -38.34071 | 39 ft | 12 kts | 53° |
| 2026-04-20 18:00 | -12.91429 | -38.33935 | 41 ft | 30 kts | 53° |
| 2026-04-20 18:01 | -12.91339 | -38.33774 | 39 ft | 4 kts | 131° |
| 2026-04-20 18:01 | -12.91422 | -38.33711 | 39 ft | 30 kts | 144° |
| 2026-04-20 18:01 | -12.91670 | -38.33527 | 39 ft | 53 kts | 143° |
| 2026-04-20 18:01 | -12.91837 | -38.33372 | 39 ft | 9 kts | 76° |
| 2026-04-20 18:02 | -12.91815 | -38.33258 | 39 ft | 27 kts | 79° |
| 2026-04-20 18:02 | -12.91756 | -38.33161 | 39 ft | 10 kts | 15° |
| 2026-04-20 18:02 | -12.91670 | -38.33133 | 39 ft | 21 kts | 17° |
| 2026-04-20 18:02 | -12.91454 | -38.33085 | 39 ft | 35 kts | 17° |
| 2026-04-20 18:03 | -12.91226 | -38.33133 | 39 ft | 33 kts | 321° |
| 2026-04-20 18:03 | -12.91215 | -38.33294 | 39 ft | 21 kts | 258° |
| 2026-04-20 18:03 | -12.91178 | -38.33411 | 38 ft | 0 kts | 298° |
| 2026-04-20 18:04 | -12.91175 | -38.33418 | 38 ft | 9 kts | 298° |
| 2026-04-20 18:04 | -12.91086 | -38.33394 | 38 ft | 23 kts | 75° |
| 2026-04-20 18:04 | -12.90987 | -38.32900 | 42 ft | 123 kts | 82° |
| 2026-04-20 18:05 | -12.90547 | -38.30635 | 1767 ft | 171 kts | 82° |
| 2026-04-20 18:05 | -12.90534 | -38.29463 | 2684 ft | 167 kts | 117° |
| 2026-04-20 18:05 | -12.91283 | -38.28632 | 3949 ft | 149 kts | 140° |
| 2026-04-20 18:06 | -12.92274 | -38.28293 | 4330 ft | 169 kts | 183° |
| 2026-04-20 18:06 | -12.93417 | -38.28704 | 4929 ft | 178 kts | 214° |
| 2026-04-20 18:06 | -12.94219 | -38.29689 | 5384 ft | 182 kts | 228° |
| 2026-04-20 18:06 | -12.95047 | -38.30662 | 5868 ft | 184 kts | 225° |
| 2026-04-20 18:07 | -12.95877 | -38.31673 | 6737 ft | 186 kts | 229° |
| 2026-04-20 18:07 | -12.96713 | -38.32695 | 7810 ft | 188 kts | 226° |
| 2026-04-20 18:07 | -12.97550 | -38.33707 | 8712 ft | 188 kts | 229° |
| 2026-04-20 18:07 | -12.98402 | -38.34746 | 9504 ft | 191 kts | 229° |
| 2026-04-20 18:08 | -12.99267 | -38.35800 | 10250 ft | 194 kts | 230° |
| 2026-04-20 18:08 | -13.00145 | -38.36865 | 10991 ft | 196 kts | 230° |
| 2026-04-20 18:08 | -13.01024 | -38.37938 | 11731 ft | 198 kts | 231° |
| 2026-04-20 18:08 | -13.01919 | -38.39026 | 12450 ft | 201 kts | 231° |
| 2026-04-20 18:09 | -13.02663 | -38.40233 | 13157 ft | 203 kts | 252° |
| 2026-04-20 18:09 | -13.02973 | -38.41642 | 13925 ft | 203 kts | 260° |
| 2026-04-20 18:09 | -13.03248 | -38.43063 | 14562 ft | 205 kts | 259° |
| 2026-04-20 18:09 | -13.03511 | -38.44507 | 15198 ft | 207 kts | 261° |
| 2026-04-20 18:10 | -13.03782 | -38.45956 | 15877 ft | 207 kts | 261° |
| 2026-04-20 18:10 | -13.04046 | -38.47414 | 16531 ft | 210 kts | 261° |
| 2026-04-20 18:10 | -13.04320 | -38.48866 | 17194 ft | 210 kts | 261° |
| 2026-04-20 18:10 | -13.04589 | -38.50345 | 17839 ft | 212 kts | 261° |
| 2026-04-20 18:11 | -13.04871 | -38.51838 | 18457 ft | 214 kts | 261° |
| 2026-04-20 18:11 | -13.05144 | -38.53345 | 19016 ft | 215 kts | 261° |
| 2026-04-20 18:11 | -13.05429 | -38.54855 | 19573 ft | 217 kts | 261° |
| 2026-04-20 18:11 | -13.05705 | -38.56381 | 20135 ft | 218 kts | 261° |
| 2026-04-20 18:12 | -13.05993 | -38.57911 | 20697 ft | 220 kts | 261° |
| 2026-04-20 18:12 | -13.06273 | -38.59456 | 21255 ft | 221 kts | 261° |
| 2026-04-20 18:12 | -13.06566 | -38.61012 | 21816 ft | 223 kts | 261° |
| 2026-04-20 18:12 | -13.06850 | -38.62579 | 22375 ft | 224 kts | 261° |
| 2026-04-20 18:13 | -13.07046 | -38.63623 | 22745 ft | 225 kts | 261° |
| 2026-04-20 18:13 | -13.07435 | -38.65749 | 23489 ft | 228 kts | 261° |
| 2026-04-20 18:13 | -13.07735 | -38.67351 | 23956 ft | 229 kts | 261° |
| 2026-04-20 18:13 | -13.07928 | -38.68416 | 24277 ft | 230 kts | 262° |
| 2026-04-20 18:14 | -13.08228 | -38.70028 | 24766 ft | 231 kts | 261° |
| 2026-04-20 18:14 | -13.08523 | -38.71648 | 25246 ft | 231 kts | 262° |
| 2026-04-20 18:14 | -13.08896 | -38.73256 | 25722 ft | 234 kts | 252° |
| 2026-04-20 18:14 | -13.09643 | -38.74755 | 26208 ft | 238 kts | 242° |
| 2026-04-20 18:15 | -13.10537 | -38.76188 | 26685 ft | 239 kts | 242° |
| 2026-04-20 18:15 | -13.11425 | -38.77633 | 27183 ft | 240 kts | 242° |
| 2026-04-20 18:15 | -13.12320 | -38.79087 | 27677 ft | 241 kts | 242° |
| 2026-04-20 18:15 | -13.13217 | -38.80548 | 28179 ft | 242 kts | 242° |
| 2026-04-20 18:16 | -13.14110 | -38.81994 | 28673 ft | 244 kts | 242° |
| 2026-04-20 18:16 | -13.15017 | -38.83469 | 29182 ft | 245 kts | 242° |
| 2026-04-20 18:16 | -13.15930 | -38.84950 | 29707 ft | 246 kts | 243° |
| 2026-04-20 18:16 | -13.16844 | -38.86440 | 30183 ft | 247 kts | 242° |
| 2026-04-20 18:17 | -13.17766 | -38.87933 | 30608 ft | 248 kts | 243° |
| 2026-04-20 18:17 | -13.18686 | -38.89433 | 31042 ft | 249 kts | 242° |
| 2026-04-20 18:17 | -13.19612 | -38.90935 | 31481 ft | 250 kts | 243° |
| 2026-04-20 18:17 | -13.20541 | -38.92446 | 31926 ft | 251 kts | 242° |
| 2026-04-20 18:18 | -13.21475 | -38.93965 | 32363 ft | 252 kts | 243° |
| 2026-04-20 18:18 | -13.22414 | -38.95492 | 32803 ft | 253 kts | 242° |
| 2026-04-20 18:18 | -13.23342 | -38.97003 | 33238 ft | 254 kts | 243° |
| 2026-04-20 18:18 | -13.24286 | -38.98537 | 33675 ft | 255 kts | 242° |
| 2026-04-20 18:19 | -13.25233 | -39.00080 | 34085 ft | 256 kts | 243° |
| 2026-04-20 18:19 | -13.26189 | -39.01632 | 34462 ft | 257 kts | 242° |
| 2026-04-20 18:19 | -13.27145 | -39.03193 | 34836 ft | 259 kts | 242° |
| 2026-04-20 18:19 | -13.28108 | -39.04756 | 35222 ft | 260 kts | 242° |
| 2026-04-20 18:20 | -13.29073 | -39.06334 | 35606 ft | 261 kts | 242° |
| 2026-04-20 18:20 | -13.30049 | -39.07916 | 35987 ft | 263 kts | 242° |
| 2026-04-20 18:20 | -13.31024 | -39.09510 | 36367 ft | 264 kts | 242° |
| 2026-04-20 18:20 | -13.32007 | -39.11108 | 36753 ft | 265 kts | 242° |
| 2026-04-20 18:21 | -13.32982 | -39.12700 | 37135 ft | 267 kts | 242° |
| 2026-04-20 18:21 | -13.33975 | -39.14317 | 37526 ft | 268 kts | 242° |
| 2026-04-20 18:21 | -13.34974 | -39.15943 | 37922 ft | 270 kts | 242° |
| 2026-04-20 18:21 | -13.35974 | -39.17578 | 38316 ft | 271 kts | 242° |
| 2026-04-20 18:22 | -13.36987 | -39.19226 | 38710 ft | 273 kts | 241° |
| 2026-04-20 18:22 | -13.37995 | -39.20874 | 39105 ft | 272 kts | 241° |
| 2026-04-20 18:22 | -13.39008 | -39.22522 | 39444 ft | 274 kts | 241° |
| 2026-04-20 18:22 | -13.40024 | -39.24185 | 39773 ft | 276 kts | 241° |
| 2026-04-20 18:23 | -13.41060 | -39.25874 | 39933 ft | 286 kts | 241° |
| 2026-04-20 18:23 | -13.42144 | -39.27650 | 39949 ft | 301 kts | 241° |
| 2026-04-20 18:23 | -13.43283 | -39.29508 | 39951 ft | 314 kts | 241° |
| 2026-04-20 18:23 | -13.44476 | -39.31454 | 39958 ft | 327 kts | 240° |
| 2026-04-20 18:24 | -13.45709 | -39.33470 | 39959 ft | 339 kts | 240° |
| 2026-04-20 18:24 | -13.46967 | -39.35530 | 39960 ft | 350 kts | 240° |
| 2026-04-20 18:24 | -13.49615 | -39.39878 | 39959 ft | 367 kts | 240° |
| 2026-04-20 18:25 | -13.52384 | -39.44420 | 39959 ft | 382 kts | 240° |
| 2026-04-20 18:25 | -13.55214 | -39.49059 | 39961 ft | 376 kts | 240° |
| 2026-04-20 18:26 | -13.57931 | -39.53521 | 39958 ft | 362 kts | 240° |
| 2026-04-20 18:26 | -13.60564 | -39.57848 | 39941 ft | 352 kts | 241° |
| 2026-04-20 18:27 | -13.63124 | -39.62058 | 39942 ft | 343 kts | 240° |
| 2026-04-20 18:27 | -13.65632 | -39.66186 | 39939 ft | 337 kts | 240° |
| 2026-04-20 18:28 | -13.68096 | -39.70243 | 39946 ft | 332 kts | 240° |
| 2026-04-20 18:28 | -13.70530 | -39.74248 | 39939 ft | 328 kts | 240° |
| 2026-04-20 18:29 | -13.72939 | -39.78215 | 39938 ft | 325 kts | 240° |
| 2026-04-20 18:29 | -13.75325 | -39.82149 | 39939 ft | 323 kts | 240° |
| 2026-04-20 18:30 | -13.77679 | -39.86032 | 39939 ft | 321 kts | 240° |
| 2026-04-20 18:30 | -13.80036 | -39.89919 | 39950 ft | 319 kts | 240° |
| 2026-04-20 18:31 | -13.82396 | -39.93811 | 39946 ft | 318 kts | 241° |
| 2026-04-20 18:31 | -13.84724 | -39.97660 | 39946 ft | 318 kts | 240° |
| 2026-04-20 18:32 | -13.87065 | -40.01523 | 39946 ft | 317 kts | 241° |
| 2026-04-20 18:32 | -13.89399 | -40.05384 | 39936 ft | 325 kts | 240° |
| 2026-04-20 18:33 | -13.91831 | -40.09396 | 39954 ft | 337 kts | 240° |
| 2026-04-20 18:33 | -13.94346 | -40.13567 | 39947 ft | 346 kts | 240° |
| 2026-04-20 18:34 | -13.96908 | -40.17804 | 39952 ft | 354 kts | 240° |
| 2026-04-20 18:34 | -13.99526 | -40.22137 | 39962 ft | 359 kts | 240° |
| 2026-04-20 18:35 | -14.02188 | -40.26550 | 39956 ft | 363 kts | 240° |
| 2026-04-20 18:35 | -14.04862 | -40.30979 | 39964 ft | 366 kts | 240° |
| 2026-04-20 18:36 | -14.07547 | -40.35434 | 39961 ft | 368 kts | 240° |
| 2026-04-20 18:36 | -14.10627 | -40.39663 | 39955 ft | 373 kts | 229° |
| 2026-04-20 18:37 | -14.14645 | -40.43117 | 39966 ft | 378 kts | 221° |
| 2026-04-20 18:37 | -14.18802 | -40.46449 | 39964 ft | 379 kts | 222° |
| 2026-04-20 18:38 | -14.22978 | -40.49774 | 39971 ft | 380 kts | 221° |
| 2026-04-20 18:38 | -14.27151 | -40.53110 | 39962 ft | 381 kts | 221° |
| 2026-04-20 18:39 | -14.31336 | -40.56452 | 39958 ft | 381 kts | 221° |
| 2026-04-20 18:39 | -14.35522 | -40.59801 | 39960 ft | 381 kts | 221° |
| 2026-04-20 18:40 | -14.39735 | -40.63170 | 39959 ft | 382 kts | 221° |
| 2026-04-20 18:40 | -14.43909 | -40.66510 | 39962 ft | 382 kts | 221° |
| 2026-04-20 18:41 | -14.48106 | -40.69870 | 39949 ft | 383 kts | 221° |
| 2026-04-20 18:41 | -14.52310 | -40.73236 | 39960 ft | 382 kts | 221° |
| 2026-04-20 18:42 | -14.56525 | -40.76613 | 39957 ft | 382 kts | 221° |
| 2026-04-20 18:42 | -14.60724 | -40.79981 | 39965 ft | 382 kts | 221° |
| 2026-04-20 18:43 | -14.64912 | -40.83340 | 39958 ft | 382 kts | 221° |
| 2026-04-20 18:43 | -14.69103 | -40.86702 | 39981 ft | 382 kts | 221° |
| 2026-04-20 18:44 | -14.73308 | -40.90078 | 39964 ft | 382 kts | 221° |
| 2026-04-20 18:44 | -14.77507 | -40.93451 | 39958 ft | 382 kts | 221° |
| 2026-04-20 18:45 | -14.81685 | -40.96810 | 39962 ft | 382 kts | 221° |
| 2026-04-20 18:45 | -14.85891 | -41.00190 | 39964 ft | 382 kts | 221° |
| 2026-04-20 18:46 | -14.90081 | -41.03565 | 39969 ft | 382 kts | 221° |
| 2026-04-20 18:46 | -14.94261 | -41.06928 | 39972 ft | 382 kts | 220° |
| 2026-04-20 18:47 | -14.98456 | -41.10305 | 39973 ft | 382 kts | 220° |
| 2026-04-20 18:47 | -15.02631 | -41.13669 | 39973 ft | 382 kts | 220° |
| 2026-04-20 18:48 | -15.06818 | -41.17045 | 39970 ft | 382 kts | 220° |
| 2026-04-20 18:48 | -15.10999 | -41.20416 | 39970 ft | 382 kts | 220° |
| 2026-04-20 18:49 | -15.15192 | -41.23801 | 39987 ft | 382 kts | 220° |
| 2026-04-20 18:49 | -15.19394 | -41.27196 | 39968 ft | 382 kts | 220° |
| 2026-04-20 18:50 | -15.23586 | -41.30581 | 39972 ft | 383 kts | 220° |
| 2026-04-20 18:50 | -15.27759 | -41.33956 | 39972 ft | 383 kts | 220° |
| 2026-04-20 18:51 | -15.31978 | -41.37367 | 39970 ft | 383 kts | 220° |
| 2026-04-20 18:51 | -15.36173 | -41.40762 | 39971 ft | 383 kts | 220° |
| 2026-04-20 18:52 | -15.40366 | -41.44155 | 39975 ft | 383 kts | 220° |
| 2026-04-20 18:52 | -15.44566 | -41.47558 | 39973 ft | 383 kts | 220° |
| 2026-04-20 18:53 | -15.48762 | -41.50958 | 39971 ft | 383 kts | 220° |
| 2026-04-20 18:53 | -15.52945 | -41.54351 | 39971 ft | 383 kts | 220° |
| 2026-04-20 18:54 | -15.57144 | -41.57755 | 39968 ft | 383 kts | 220° |
| 2026-04-20 18:54 | -15.61308 | -41.61137 | 39972 ft | 383 kts | 220° |
| 2026-04-20 18:55 | -15.65506 | -41.64545 | 39976 ft | 383 kts | 220° |
| 2026-04-20 18:55 | -15.69699 | -41.67951 | 39982 ft | 383 kts | 220° |
| 2026-04-20 18:56 | -15.73900 | -41.71367 | 39974 ft | 383 kts | 220° |
| 2026-04-20 18:56 | -15.78088 | -41.74775 | 39981 ft | 383 kts | 220° |
| 2026-04-20 18:57 | -15.82256 | -41.78167 | 39983 ft | 383 kts | 219° |
| 2026-04-20 18:57 | -15.86452 | -41.81582 | 39978 ft | 383 kts | 220° |
| 2026-04-20 18:58 | -15.90647 | -41.85001 | 39977 ft | 383 kts | 220° |
| 2026-04-20 18:58 | -15.94842 | -41.88420 | 39975 ft | 383 kts | 220° |
| 2026-04-20 18:59 | -15.99034 | -41.91840 | 39971 ft | 383 kts | 220° |
| 2026-04-20 18:59 | -16.02518 | -41.94681 | 39968 ft | 383 kts | 220° |
| 2026-04-20 19:00 | -16.06715 | -41.98107 | 39971 ft | 383 kts | 219° |
| 2026-04-20 19:00 | -16.10906 | -42.01533 | 39965 ft | 383 kts | 219° |
| 2026-04-20 19:01 | -16.15099 | -42.04961 | 39956 ft | 383 kts | 219° |
| 2026-04-20 19:01 | -16.19284 | -42.08382 | 39960 ft | 383 kts | 219° |
| 2026-04-20 19:02 | -16.23471 | -42.11808 | 39959 ft | 383 kts | 219° |
| 2026-04-20 19:02 | -16.27660 | -42.15239 | 39962 ft | 383 kts | 219° |
| 2026-04-20 19:03 | -16.31854 | -42.18675 | 39958 ft | 384 kts | 219° |
| 2026-04-20 19:03 | -16.36028 | -42.22094 | 39955 ft | 384 kts | 219° |
| 2026-04-20 19:04 | -16.40219 | -42.25533 | 39952 ft | 384 kts | 219° |
| 2026-04-20 19:04 | -16.44416 | -42.28975 | 39952 ft | 384 kts | 219° |
| 2026-04-20 19:05 | -16.48609 | -42.32418 | 39964 ft | 384 kts | 219° |
| 2026-04-20 19:05 | -16.52811 | -42.35869 | 39960 ft | 384 kts | 219° |
| 2026-04-20 19:06 | -16.57006 | -42.39318 | 39960 ft | 384 kts | 219° |
| 2026-04-20 19:06 | -16.61171 | -42.42752 | 39955 ft | 384 kts | 219° |
| 2026-04-20 19:07 | -16.65362 | -42.46217 | 39954 ft | 384 kts | 219° |
| 2026-04-20 19:07 | -16.68089 | -42.48457 | 39954 ft | 384 kts | 219° |
| 2026-04-20 19:08 | -16.74315 | -42.53587 | 39957 ft | 384 kts | 219° |
| 2026-04-20 19:09 | -16.78480 | -42.57020 | 39957 ft | 383 kts | 219° |
| 2026-04-20 19:09 | -16.82667 | -42.60474 | 39957 ft | 383 kts | 219° |
| 2026-04-20 19:10 | -16.86851 | -42.63928 | 39953 ft | 383 kts | 219° |
| 2026-04-20 19:10 | -16.91028 | -42.67380 | 39973 ft | 382 kts | 219° |
| 2026-04-20 19:11 | -16.95089 | -42.70737 | 39974 ft | 382 kts | 219° |
| 2026-04-20 19:11 | -16.99268 | -42.74192 | 39976 ft | 383 kts | 219° |
| 2026-04-20 19:12 | -17.03446 | -42.77647 | 39969 ft | 383 kts | 219° |
| 2026-04-20 19:12 | -17.07596 | -42.81085 | 39970 ft | 383 kts | 219° |
| 2026-04-20 19:13 | -17.11768 | -42.84541 | 39978 ft | 382 kts | 218° |
| 2026-04-20 19:13 | -17.15942 | -42.88000 | 39977 ft | 382 kts | 218° |
| 2026-04-20 19:14 | -17.20118 | -42.91463 | 39980 ft | 382 kts | 218° |
| 2026-04-20 19:14 | -17.24289 | -42.94925 | 39978 ft | 382 kts | 218° |
| 2026-04-20 19:15 | -17.28427 | -42.98361 | 39978 ft | 382 kts | 218° |
| 2026-04-20 19:15 | -17.32594 | -43.01823 | 39986 ft | 382 kts | 218° |
| 2026-04-20 19:16 | -17.36763 | -43.05289 | 39979 ft | 383 kts | 218° |
| 2026-04-20 19:16 | -17.40933 | -43.08758 | 39980 ft | 383 kts | 218° |
| 2026-04-20 19:17 | -17.45105 | -43.12230 | 39975 ft | 383 kts | 218° |
| 2026-04-20 19:17 | -17.49278 | -43.15706 | 39978 ft | 383 kts | 218° |
| 2026-04-20 19:18 | -17.53451 | -43.19183 | 39987 ft | 383 kts | 218° |
| 2026-04-20 19:18 | -17.57624 | -43.22665 | 39979 ft | 384 kts | 218° |
| 2026-04-20 19:19 | -17.61809 | -43.26155 | 39981 ft | 384 kts | 218° |
| 2026-04-20 19:19 | -17.65995 | -43.29649 | 39981 ft | 385 kts | 218° |
| 2026-04-20 19:20 | -17.70189 | -43.33152 | 39980 ft | 385 kts | 218° |
| 2026-04-20 19:20 | -17.74377 | -43.36652 | 39986 ft | 385 kts | 218° |
| 2026-04-20 19:21 | -17.78572 | -43.40158 | 39986 ft | 386 kts | 218° |
| 2026-04-20 19:21 | -17.82773 | -43.43674 | 39983 ft | 386 kts | 218° |
| 2026-04-20 19:22 | -17.86945 | -43.47168 | 39983 ft | 386 kts | 218° |
| 2026-04-20 19:22 | -17.91143 | -43.50687 | 39995 ft | 386 kts | 218° |
| 2026-04-20 19:23 | -17.95345 | -43.54209 | 39990 ft | 387 kts | 218° |
| 2026-04-20 19:23 | -17.99550 | -43.57736 | 40001 ft | 387 kts | 218° |
| 2026-04-20 19:24 | -18.03760 | -43.61270 | 40002 ft | 388 kts | 218° |
| 2026-04-20 19:24 | -18.07973 | -43.64810 | 40005 ft | 387 kts | 218° |
| 2026-04-20 19:25 | -18.12178 | -43.68344 | 39998 ft | 387 kts | 218° |
| 2026-04-20 19:25 | -18.16382 | -43.71882 | 40005 ft | 387 kts | 218° |
| 2026-04-20 19:26 | -18.20589 | -43.75423 | 40000 ft | 387 kts | 218° |
| 2026-04-20 19:26 | -18.24795 | -43.78969 | 40002 ft | 387 kts | 218° |
| 2026-04-20 19:27 | -18.28966 | -43.82487 | 40000 ft | 383 kts | 218° |
| 2026-04-20 19:27 | -18.33073 | -43.85949 | 39983 ft | 374 kts | 218° |
| 2026-04-20 19:28 | -18.37104 | -43.89352 | 39984 ft | 368 kts | 217° |
| 2026-04-20 19:28 | -18.41076 | -43.92705 | 39978 ft | 364 kts | 217° |
| 2026-04-20 19:29 | -18.45008 | -43.96022 | 39977 ft | 361 kts | 217° |
| 2026-04-20 19:29 | -18.48900 | -43.99311 | 39966 ft | 358 kts | 218° |
| 2026-04-20 19:30 | -18.52775 | -44.02586 | 39969 ft | 357 kts | 218° |
| 2026-04-20 19:30 | -18.56644 | -44.05862 | 39972 ft | 355 kts | 217° |
| 2026-04-20 19:31 | -18.60498 | -44.09124 | 39960 ft | 354 kts | 217° |
| 2026-04-20 19:31 | -18.64334 | -44.12374 | 39960 ft | 353 kts | 217° |
| 2026-04-20 19:32 | -18.68149 | -44.15606 | 39955 ft | 353 kts | 217° |
| 2026-04-20 19:32 | -18.71981 | -44.18855 | 39953 ft | 352 kts | 217° |
| 2026-04-20 19:33 | -18.75778 | -44.22077 | 39956 ft | 352 kts | 217° |
| 2026-04-20 19:33 | -18.79615 | -44.25332 | 39957 ft | 351 kts | 217° |
| 2026-04-20 19:34 | -18.83398 | -44.28553 | 39959 ft | 350 kts | 217° |
| 2026-04-20 19:34 | -18.87186 | -44.31777 | 39961 ft | 349 kts | 217° |
| 2026-04-20 19:35 | -18.90968 | -44.34999 | 39959 ft | 349 kts | 218° |
| 2026-04-20 19:35 | -18.94714 | -44.38193 | 39967 ft | 349 kts | 217° |
| 2026-04-20 19:36 | -18.98514 | -44.41435 | 39964 ft | 349 kts | 217° |
| 2026-04-20 19:36 | -19.02284 | -44.44652 | 39960 ft | 349 kts | 217° |
| 2026-04-20 19:37 | -19.06063 | -44.47876 | 39958 ft | 349 kts | 217° |
| 2026-04-20 19:37 | -19.09839 | -44.51099 | 39970 ft | 348 kts | 217° |
| 2026-04-20 19:38 | -19.13593 | -44.54307 | 39971 ft | 348 kts | 217° |
| 2026-04-20 19:38 | -19.17367 | -44.57533 | 39971 ft | 349 kts | 217° |
| 2026-04-20 19:39 | -19.21143 | -44.60764 | 39970 ft | 349 kts | 217° |
| 2026-04-20 19:39 | -19.24917 | -44.63993 | 39971 ft | 349 kts | 217° |
| 2026-04-20 19:40 | -19.28694 | -44.67225 | 39978 ft | 349 kts | 217° |
| 2026-04-20 19:40 | -19.32461 | -44.70450 | 39976 ft | 348 kts | 217° |
| 2026-04-20 19:41 | -19.36222 | -44.73675 | 39972 ft | 349 kts | 217° |
| 2026-04-20 19:41 | -19.39982 | -44.76898 | 39975 ft | 349 kts | 217° |
| 2026-04-20 19:42 | -19.43759 | -44.80137 | 39974 ft | 349 kts | 217° |
| 2026-04-20 19:42 | -19.47105 | -44.83899 | 39963 ft | 354 kts | 231° |
| 2026-04-20 19:43 | -19.49306 | -44.88579 | 39965 ft | 362 kts | 246° |
| 2026-04-20 19:43 | -19.50141 | -44.93901 | 39963 ft | 373 kts | 263° |
| 2026-04-20 19:44 | -19.49392 | -44.99429 | 39964 ft | 387 kts | 281° |
| 2026-04-20 19:44 | -19.47596 | -45.04834 | 39972 ft | 389 kts | 283° |
| 2026-04-20 19:45 | -19.45798 | -45.10243 | 39974 ft | 389 kts | 283° |
| 2026-04-20 19:45 | -19.43996 | -45.15628 | 39965 ft | 389 kts | 283° |
| 2026-04-20 19:46 | -19.42190 | -45.21038 | 39965 ft | 389 kts | 283° |
| 2026-04-20 19:46 | -19.40383 | -45.26440 | 39968 ft | 389 kts | 283° |
| 2026-04-20 19:47 | -19.38572 | -45.31851 | 39966 ft | 390 kts | 283° |
| 2026-04-20 19:47 | -19.37064 | -45.36345 | 39965 ft | 390 kts | 283° |
| 2026-04-20 19:48 | -19.35250 | -45.41756 | 39958 ft | 390 kts | 283° |
| 2026-04-20 19:48 | -19.33137 | -45.48035 | 39962 ft | 389 kts | 283° |
| 2026-04-20 19:49 | -19.31318 | -45.53439 | 39963 ft | 389 kts | 283° |
| 2026-04-20 19:49 | -19.29806 | -45.57925 | 39957 ft | 389 kts | 283° |
| 2026-04-20 19:50 | -19.27990 | -45.63309 | 39972 ft | 389 kts | 283° |
| 2026-04-20 19:50 | -19.27077 | -45.66017 | 39303 ft | 395 kts | 283° |
| 2026-04-20 19:50 | -19.26149 | -45.68782 | 38351 ft | 402 kts | 283° |
| 2026-04-20 19:50 | -19.25198 | -45.71590 | 37315 ft | 408 kts | 284° |
| 2026-04-20 19:51 | -19.24235 | -45.74425 | 36326 ft | 410 kts | 284° |
| 2026-04-20 19:51 | -19.23269 | -45.77272 | 35382 ft | 412 kts | 285° |
| 2026-04-20 19:51 | -19.22307 | -45.80125 | 34472 ft | 411 kts | 285° |
| 2026-04-20 19:51 | -19.21342 | -45.82969 | 33529 ft | 410 kts | 285° |
| 2026-04-20 19:52 | -19.20378 | -45.85808 | 32538 ft | 409 kts | 286° |
| 2026-04-20 19:52 | -19.19421 | -45.88634 | 31574 ft | 407 kts | 286° |
| 2026-04-20 19:52 | -19.18467 | -45.91452 | 30649 ft | 406 kts | 286° |
| 2026-04-20 19:52 | -19.17510 | -45.94257 | 29691 ft | 404 kts | 286° |
| 2026-04-20 19:53 | -19.16579 | -45.97015 | 28664 ft | 402 kts | 287° |
| 2026-04-20 19:53 | -19.15630 | -45.99793 | 27644 ft | 400 kts | 287° |
| 2026-04-20 19:53 | -19.14693 | -46.02554 | 26672 ft | 397 kts | 287° |
| 2026-04-20 19:53 | -19.13764 | -46.05299 | 25741 ft | 395 kts | 288° |
| 2026-04-20 19:54 | -19.12862 | -46.07941 | 25803 ft | 369 kts | 288° |
| 2026-04-20 19:54 | -19.11995 | -46.10492 | 25887 ft | 371 kts | 288° |
| 2026-04-20 19:54 | -19.11120 | -46.13077 | 25888 ft | 377 kts | 287° |
| 2026-04-20 19:54 | -19.10229 | -46.15705 | 25885 ft | 382 kts | 288° |
| 2026-04-20 19:55 | -19.09317 | -46.18361 | 25890 ft | 386 kts | 288° |
| 2026-04-20 19:55 | -19.08407 | -46.21045 | 25887 ft | 389 kts | 288° |
| 2026-04-20 19:55 | -19.07482 | -46.23748 | 25898 ft | 392 kts | 288° |
| 2026-04-20 19:55 | -19.06557 | -46.26472 | 25899 ft | 394 kts | 288° |
| 2026-04-20 19:56 | -19.05623 | -46.29203 | 25898 ft | 396 kts | 288° |
| 2026-04-20 19:56 | -19.04685 | -46.31945 | 25897 ft | 398 kts | 288° |
| 2026-04-20 19:56 | -19.03741 | -46.34724 | 25675 ft | 405 kts | 288° |
| 2026-04-20 19:56 | -19.02772 | -46.37545 | 25450 ft | 410 kts | 288° |
| 2026-04-20 19:57 | -19.01808 | -46.40370 | 25088 ft | 418 kts | 288° |
| 2026-04-20 19:57 | -19.00798 | -46.43317 | 24705 ft | 424 kts | 288° |
| 2026-04-20 19:57 | -18.99789 | -46.46262 | 24232 ft | 431 kts | 288° |
| 2026-04-20 19:57 | -18.98797 | -46.49162 | 23610 ft | 416 kts | 289° |
| 2026-04-20 19:58 | -18.97823 | -46.51985 | 22843 ft | 403 kts | 289° |
| 2026-04-20 19:58 | -18.96887 | -46.54736 | 22006 ft | 394 kts | 288° |
| 2026-04-20 19:58 | -18.95957 | -46.57431 | 21189 ft | 386 kts | 289° |
| 2026-04-20 19:58 | -18.95053 | -46.60072 | 20285 ft | 378 kts | 288° |
| 2026-04-20 19:59 | -18.94306 | -46.62706 | 19313 ft | 370 kts | 282° |
| 2026-04-20 19:59 | -18.93735 | -46.65349 | 18123 ft | 362 kts | 281° |
| 2026-04-20 19:59 | -18.93234 | -46.67861 | 16801 ft | 345 kts | 280° |
| 2026-04-20 19:59 | -18.92764 | -46.70366 | 15518 ft | 349 kts | 280° |
| 2026-04-20 20:00 | -18.92333 | -46.72895 | 14291 ft | 349 kts | 278° |
| 2026-04-20 20:00 | -18.92010 | -46.75429 | 13019 ft | 348 kts | 275° |
| 2026-04-20 20:00 | -18.91818 | -46.77969 | 11723 ft | 345 kts | 273° |
| 2026-04-20 20:00 | -18.91689 | -46.80481 | 10483 ft | 339 kts | 270° |
| 2026-04-20 20:01 | -18.91707 | -46.82955 | 9219 ft | 334 kts | 268° |
| 2026-04-20 20:01 | -18.91759 | -46.85393 | 7936 ft | 329 kts | 268° |
| 2026-04-20 20:01 | -18.91819 | -46.87792 | 6702 ft | 325 kts | 267° |
| 2026-04-20 20:01 | -18.91866 | -46.90159 | 5451 ft | 320 kts | 268° |
| 2026-04-20 20:02 | -18.91907 | -46.92478 | 4677 ft | 297 kts | 268° |
| 2026-04-20 20:02 | -18.91950 | -46.94319 | 4421 ft | 218 kts | 267° |
| 2026-04-20 20:02 | -18.91984 | -46.95804 | 4301 ft | 197 kts | 267° |
| 2026-04-20 20:02 | -18.91759 | -46.97194 | 4110 ft | 187 kts | 296° |
| 2026-04-20 20:03 | -18.91146 | -46.98393 | 4036 ft | 176 kts | 298° |
| 2026-04-20 20:03 | -18.90783 | -46.99459 | 4389 ft | 132 kts | 266° |
| 2026-04-20 20:03 | -18.91295 | -47.00162 | 4459 ft | 141 kts | 200° |
| 2026-04-20 20:03 | -18.92202 | -47.00331 | 4182 ft | 126 kts | 167° |
| 2026-04-20 20:04 | -18.92554 | -46.99532 | 3758 ft | 126 kts | 78° |
| 2026-04-20 20:04 | -18.92035 | -46.98839 | 3460 ft | 120 kts | 20° |
| 2026-04-20 20:04 | -18.91308 | -46.98480 | 3241 ft | 106 kts | 24° |
| 2026-04-20 20:04 | -18.90771 | -46.98198 | 3232 ft | 59 kts | 27° |
| 2026-04-20 20:05 | -18.90564 | -46.98087 | 3236 ft | 30 kts | 26° |
| 2026-04-20 20:05 | -18.90472 | -46.98077 | 3236 ft | 4 kts | 49° |
| 2026-04-20 20:05 | -18.90545 | -46.98076 | 3235 ft | 29 kts | 207° |
| 2026-04-20 20:05 | -18.90805 | -46.98214 | 3233 ft | 46 kts | 207° |
| 2026-04-20 20:06 | -18.91077 | -46.98356 | 3232 ft | 37 kts | 205° |
| 2026-04-20 20:06 | -18.91141 | -46.98453 | 3235 ft | 11 kts | 293° |
| 2026-04-20 20:06 | -18.91127 | -46.98504 | 3234 ft | 0 kts | 300° |